Maple Park, Illinois
Current Conditions -  °F | °C
As of 7:55 PM on Friday 31 Oct 2014 (Local Time) from KDKB Reporting Station
Overcast Overcast  
Wind Chill: 25°   Ceiling: 5000
Heat Index: 34°   Visibility: 10mi
Dew Point: 18°   Wind: 14mph
Humidity: 52%   Direction: 10°N
Pressure: 30.36"   Gusts: 22mph
Location:  41.91°N, 88.6°W
Report Text: KDKB 010055Z AUTO 01012G19KT 10SM OVC050 01/M08 A3036 RMK AO2 T00111078
Loading
Personal Weather Stations






























Interactive Weather Map
Tropical Storm Tracking
New forecast layout! Learn more

10-Day Weather Forecast

Advertisements
Track Severe Weather on mobile